Time,TemperatureF,DewpointF,PressureIn,WindDirection,WindDirectionDegrees,WindSpeedMPH,WindSpeedGustMPH,Humidity,HourlyPrecipIn,Conditions,Clouds,dailyrainin,SoftwareType,DateUTC
2013-11-23 00:00:00,54.8,54.2,30.20,NNE,33,0.0,0.0,98,0.00,,,0.01,Wunderground v.1.15,2013-11-23 05:00:00,
2013-11-23 00:05:00,55.0,54.4,30.20,NNE,33,0.0,0.0,98,0.00,,,0.00,Wunderground v.1.15,2013-11-23 05:05:00,
2013-11-23 00:10:00,55.1,54.5,30.20,NNE,33,0.0,0.0,98,0.00,,,0.00,Wunderground v.1.15,2013-11-23 05:10:00,
2013-11-23 00:15:00,55.3,54.7,30.20,NNE,33,0.0,0.0,98,0.00,,,0.00,Wunderground v.1.15,2013-11-23 05:15:00,
2013-11-23 00:25:00,55.5,54.9,30.20,NNE,33,0.0,0.0,98,0.00,,,0.00,Wunderground v.1.15,2013-11-23 05:25:00,
2013-11-23 00:30:00,55.7,55.1,30.19,NNE,33,0.0,0.0,98,0.00,,,0.00,Wunderground v.1.15,2013-11-23 05:30:00,
2013-11-23 00:40:00,55.9,55.3,30.19,NNE,33,0.0,0.0,98,0.00,,,0.00,Wunderground v.1.15,2013-11-23 05:40:00,
2013-11-23 00:45:00,55.9,55.3,30.20,NNE,33,0.0,0.0,98,0.00,,,0.00,Wunderground v.1.15,2013-11-23 05:45:00,
2013-11-23 00:50:00,56.4,55.8,30.19,NNE,33,1.0,1.0,98,0.00,,,0.00,Wunderground v.1.15,2013-11-23 05:50:00,
2013-11-23 00:55:00,56.9,56.3,30.19,NNE,33,2.0,2.0,98,0.00,,,0.00,Wunderground v.1.15,2013-11-23 05:55:00,
2013-11-23 01:00:00,57.6,57.0,30.19,NNE,33,1.0,1.0,98,0.00,,,0.00,Wunderground v.1.15,2013-11-23 06:00:00,
2013-11-23 01:10:00,58.6,58.0,30.19,NNE,22,1.0,3.0,98,0.00,,,0.00,Wunderground v.1.15,2013-11-23 06:10:00,
2013-11-23 01:15:00,58.7,58.1,30.19,North,11,1.0,3.0,98,0.00,,,0.00,Wunderground v.1.15,2013-11-23 06:15:00,
2013-11-23 01:20:00,58.9,58.3,30.19,North,360,2.0,2.0,98,0.00,,,0.00,Wunderground v.1.15,2013-11-23 06:20:00,
2013-11-23 01:30:00,59.0,58.4,30.19,North,5,0.0,2.0,98,0.00,,,0.00,Wunderground v.1.15,2013-11-23 06:30:00,
2013-11-23 01:35:00,59.0,58.4,30.19,North,5,1.0,2.0,98,0.00,,,0.00,Wunderground v.1.15,2013-11-23 06:35:00,
2013-11-23 01:40:00,59.0,58.4,30.19,North,360,1.0,1.0,98,0.00,,,0.00,Wunderground v.1.15,2013-11-23 06:40:00,
2013-11-23 01:45:00,59.0,58.4,30.19,North,360,0.0,2.0,98,0.00,,,0.00,Wunderground v.1.15,2013-11-23 06:45:00,
2013-11-23 01:55:00,59.0,58.4,30.19,North,5,0.0,0.0,98,0.00,,,0.00,Wunderground v.1.15,2013-11-23 06:55:00,
2013-11-23 02:00:00,59.0,58.4,30.19,North,5,0.0,0.0,98,0.00,,,0.00,Wunderground v.1.15,2013-11-23 07:00:00,
2013-11-23 02:05:00,59.0,58.4,30.19,North,360,0.0,0.0,98,0.00,,,0.00,Wunderground v.1.15,2013-11-23 07:05:00,
2013-11-23 02:10:00,59.0,58.4,30.20,NNW,338,0.0,1.0,98,0.00,,,0.01,Wunderground v.1.15,2013-11-23 07:10:00,
2013-11-23 02:15:00,59.2,58.6,30.20,NNW,339,0.0,1.0,98,0.00,,,0.01,Wunderground v.1.15,2013-11-23 07:15:00,
2013-11-23 02:20:00,59.3,58.7,30.19,NNW,339,0.0,0.0,98,0.08,,,0.02,Wunderground v.1.15,2013-11-23 07:20:00,
2013-11-23 02:30:00,59.5,58.9,30.19,NNW,339,0.0,1.0,98,0.07,,,0.03,Wunderground v.1.15,2013-11-23 07:30:00,
2013-11-23 02:40:00,59.6,59.0,30.19,NNW,339,0.0,0.0,98,0.07,,,0.04,Wunderground v.1.15,2013-11-23 07:40:00,
2013-11-23 02:45:00,59.6,59.0,30.19,NNW,339,0.0,0.0,98,0.25,,,0.06,Wunderground v.1.15,2013-11-23 07:45:00,
2013-11-23 02:50:00,59.7,59.1,30.19,NNW,338,0.0,0.0,98,0.12,,,0.07,Wunderground v.1.15,2013-11-23 07:50:00,
2013-11-23 02:55:00,59.7,59.1,30.19,NNW,338,0.0,0.0,98,0.18,,,0.08,Wunderground v.1.15,2013-11-23 07:55:00,
2013-11-23 03:00:00,59.8,59.2,30.18,NNW,339,0.0,0.0,98,0.09,,,0.09,Wunderground v.1.15,2013-11-23 08:00:00,
2013-11-23 03:10:00,59.9,59.3,30.18,NNW,339,0.0,0.0,98,0.10,,,0.10,Wunderground v.1.15,2013-11-23 08:10:00,
2013-11-23 03:15:00,59.9,59.3,30.18,NNW,339,0.0,0.0,98,0.06,,,0.10,Wunderground v.1.15,2013-11-23 08:15:00,
2013-11-23 03:20:00,60.0,59.4,30.18,NNW,339,0.0,0.0,98,0.05,,,0.11,Wunderground v.1.15,2013-11-23 08:20:00,
2013-11-23 03:30:00,59.9,59.3,30.17,NNW,338,0.0,1.0,98,0.08,,,0.12,Wunderground v.1.15,2013-11-23 08:30:00,
2013-11-23 03:40:00,59.8,59.2,30.17,NNW,339,0.0,0.0,98,0.07,,,0.13,Wunderground v.1.15,2013-11-23 08:40:00,
2013-11-23 03:45:00,59.9,59.3,30.17,NNW,339,0.0,0.0,98,0.06,,,0.13,Wunderground v.1.15,2013-11-23 08:45:00,
2013-11-23 03:50:00,60.0,59.4,30.17,ENE,62,0.0,2.0,98,0.04,,,0.13,Wunderground v.1.15,2013-11-23 08:50:00,
2013-11-23 03:55:00,59.8,59.2,30.16,ESE,107,1.0,2.0,98,0.00,,,0.13,Wunderground v.1.15,2013-11-23 08:55:00,
2013-11-23 04:00:00,59.9,59.3,30.16,ESE,115,3.0,3.0,98,0.00,,,0.13,Wunderground v.1.15,2013-11-23 09:00:00,
2013-11-23 04:10:00,59.9,59.3,30.16,ESE,109,1.0,1.0,98,0.00,,,0.13,Wunderground v.1.15,2013-11-23 09:10:00,
2013-11-23 04:15:00,59.9,59.3,30.16,ESE,109,1.0,1.0,98,0.00,,,0.13,Wunderground v.1.15,2013-11-23 09:15:00,
2013-11-23 04:25:00,60.1,59.5,30.15,ESE,109,0.0,0.0,98,0.00,,,0.13,Wunderground v.1.15,2013-11-23 09:25:00,
2013-11-23 04:30:00,60.1,59.5,30.15,ESE,109,0.0,0.0,98,0.00,,,0.13,Wunderground v.1.15,2013-11-23 09:30:00,
2013-11-23 04:35:00,60.1,59.5,30.15,ESE,109,0.0,0.0,98,0.00,,,0.13,Wunderground v.1.15,2013-11-23 09:35:00,
2013-11-23 04:40:00,60.0,59.4,30.15,ESE,109,0.0,0.0,98,0.00,,,0.13,Wunderground v.1.15,2013-11-23 09:40:00,
2013-11-23 04:45:00,60.0,59.4,30.15,ESE,107,1.0,1.0,98,0.00,,,0.13,Wunderground v.1.15,2013-11-23 09:45:00,
2013-11-23 04:50:00,60.2,59.6,30.15,ESE,108,1.0,1.0,98,0.00,,,0.13,Wunderground v.1.15,2013-11-23 09:50:00,
2013-11-23 04:55:00,60.3,59.7,30.15,ESE,115,0.0,2.0,98,0.00,,,0.13,Wunderground v.1.15,2013-11-23 09:55:00,
2013-11-23 05:00:00,60.4,60.1,30.15,SW,227,0.0,0.0,99,0.00,,,0.13,Wunderground v.1.15,2013-11-23 10:00:00,
2013-11-23 05:10:00,60.5,60.2,30.15,SW,226,0.0,0.0,99,0.00,,,0.13,Wunderground v.1.15,2013-11-23 10:10:00,
2013-11-23 05:15:00,60.6,60.3,30.15,SW,233,1.0,1.0,99,0.00,,,0.13,Wunderground v.1.15,2013-11-23 10:15:00,
2013-11-23 05:25:00,60.7,60.4,30.15,SW,234,0.0,1.0,99,0.00,,,0.13,Wunderground v.1.15,2013-11-23 10:25:00,
2013-11-23 05:30:00,60.7,60.4,30.15,WSW,248,1.0,1.0,99,0.00,,,0.13,Wunderground v.1.15,2013-11-23 10:30:00,
2013-11-23 05:35:00,60.7,60.4,30.15,WSW,248,1.0,1.0,99,0.00,,,0.13,Wunderground v.1.15,2013-11-23 10:35:00,
2013-11-23 05:45:00,60.6,60.3,30.15,WSW,248,0.0,0.0,99,0.00,,,0.13,Wunderground v.1.15,2013-11-23 10:45:00,
2013-11-23 05:55:00,60.5,60.2,30.15,WSW,248,0.0,0.0,99,0.00,,,0.13,Wunderground v.1.15,2013-11-23 10:55:00,
2013-11-23 06:00:00,60.4,60.1,30.15,WSW,248,0.0,0.0,99,0.00,,,0.13,Wunderground v.1.15,2013-11-23 11:00:00,
2013-11-23 06:10:00,60.4,60.1,30.15,WSW,248,0.0,0.0,99,0.00,,,0.13,Wunderground v.1.15,2013-11-23 11:10:00,
2013-11-23 06:15:00,60.3,59.7,30.15,WSW,248,0.0,0.0,98,0.00,,,0.13,Wunderground v.1.15,2013-11-23 11:15:00,
2013-11-23 06:25:00,60.3,59.7,30.15,NNW,331,0.0,1.0,98,0.00,,,0.13,Wunderground v.1.15,2013-11-23 11:25:00,
2013-11-23 06:30:00,60.2,59.6,30.15,NNW,331,0.0,0.0,98,0.00,,,0.13,Wunderground v.1.15,2013-11-23 11:30:00,
2013-11-23 06:35:00,60.1,59.5,30.15,NNW,331,0.0,0.0,98,0.00,,,0.13,Wunderground v.1.15,2013-11-23 11:35:00,
2013-11-23 06:40:00,59.9,59.3,30.15,NNW,331,0.0,0.0,98,0.00,,,0.13,Wunderground v.1.15,2013-11-23 11:40:00,
2013-11-23 06:45:00,59.8,59.2,30.15,NNW,331,1.0,2.0,98,0.00,,,0.13,Wunderground v.1.15,2013-11-23 11:45:00,
2013-11-23 06:55:00,59.5,58.9,30.15,NNW,333,1.0,2.0,98,0.00,,,0.13,Wunderground v.1.15,2013-11-23 11:55:00,
2013-11-23 07:05:00,59.3,58.7,30.15,SW,229,1.0,1.0,98,0.00,,,0.13,Wunderground v.1.15,2013-11-23 12:05:00,
2013-11-23 07:10:00,59.3,58.7,30.15,West,275,1.0,1.0,98,0.00,,,0.13,Wunderground v.1.15,2013-11-23 12:10:00,
2013-11-23 07:15:00,59.3,58.7,30.15,NNW,338,1.0,1.0,98,0.00,,,0.13,Wunderground v.1.15,2013-11-23 12:15:00,
2013-11-23 07:25:00,59.1,58.5,30.16,NNW,336,1.0,1.0,98,0.00,,,0.13,Wunderground v.1.15,2013-11-23 12:25:00,
2013-11-23 07:30:00,59.1,58.5,30.16,NNW,331,1.0,1.0,98,0.00,,,0.13,Wunderground v.1.15,2013-11-23 12:30:00,
2013-11-23 07:40:00,59.0,58.4,30.16,WNW,294,1.0,2.0,98,0.00,,,0.13,Wunderground v.1.15,2013-11-23 12:40:00,
2013-11-23 07:45:00,59.0,58.4,30.16,NW,311,2.0,4.0,98,0.00,,,0.13,Wunderground v.1.15,2013-11-23 12:45:00,
2013-11-23 07:50:00,59.0,58.4,30.16,NW,319,2.0,2.0,98,0.00,,,0.13,Wunderground v.1.15,2013-11-23 12:50:00,
2013-11-23 08:00:00,59.0,58.4,30.17,NNW,341,2.0,2.0,98,0.00,,,0.13,Wunderground v.1.15,2013-11-23 13:00:00,
2013-11-23 08:10:00,59.0,58.4,30.17,West,269,1.0,1.0,98,0.00,,,0.13,Wunderground v.1.15,2013-11-23 13:10:00,
2013-11-23 08:15:00,59.0,58.4,30.17,West,267,1.0,1.0,98,0.00,,,0.13,Wunderground v.1.15,2013-11-23 13:15:00,
2013-11-23 08:25:00,59.0,58.4,30.17,WSW,254,2.0,2.0,98,0.00,,,0.13,Wunderground v.1.15,2013-11-23 13:25:00,
2013-11-23 08:30:00,59.1,58.5,30.16,WSW,237,2.0,2.0,98,0.00,,,0.13,Wunderground v.1.15,2013-11-23 13:30:00,
2013-11-23 08:40:00,59.3,58.7,30.17,North,11,2.0,2.0,98,0.00,,,0.13,Wunderground v.1.15,2013-11-23 13:40:00,
2013-11-23 08:45:00,59.3,58.7,30.17,West,266,2.0,6.0,98,0.00,,,0.13,Wunderground v.1.15,2013-11-23 13:45:00,
2013-11-23 08:50:00,59.3,58.7,30.17,NNE,14,2.0,3.0,98,0.00,,,0.13,Wunderground v.1.15,2013-11-23 13:50:00,
2013-11-23 09:00:00,59.4,58.8,30.17,WNW,291,2.0,3.0,98,0.00,,,0.13,Wunderground v.1.15,2013-11-23 14:00:00,
2013-11-23 09:05:00,59.5,58.9,30.18,West,263,2.0,3.0,98,0.00,,,0.13,Wunderground v.1.15,2013-11-23 14:05:00,
2013-11-23 09:10:00,59.5,58.9,30.18,SW,225,2.0,3.0,98,0.00,,,0.13,Wunderground v.1.15,2013-11-23 14:10:00,
2013-11-23 09:15:00,59.6,59.0,30.18,WNW,302,2.0,3.0,98,0.00,,,0.13,Wunderground v.1.15,2013-11-23 14:15:00,
2013-11-23 09:25:00,59.7,59.1,30.18,NW,316,2.0,2.0,98,0.00,,,0.13,Wunderground v.1.15,2013-11-23 14:25:00,
2013-11-23 09:30:00,59.7,59.1,30.18,WNW,296,2.0,2.0,98,0.00,,,0.13,Wunderground v.1.15,2013-11-23 14:30:00,
2013-11-23 09:35:00,59.7,59.1,30.19,NW,325,2.0,2.0,98,0.00,,,0.13,Wunderground v.1.15,2013-11-23 14:35:00,
2013-11-23 09:45:00,59.7,59.1,30.19,West,265,2.0,2.0,98,0.00,,,0.13,Wunderground v.1.15,2013-11-23 14:45:00,
2013-11-23 09:55:00,59.7,58.8,30.19,NW,315,1.0,2.0,97,0.00,,,0.13,Wunderground v.1.15,2013-11-23 14:55:00,
2013-11-23 10:00:00,59.9,59.0,30.19,NW,309,1.0,3.0,97,0.00,,,0.13,Wunderground v.1.15,2013-11-23 15:00:00,
2013-11-23 10:10:00,59.8,58.9,30.19,WSW,254,3.0,3.0,97,0.00,,,0.13,Wunderground v.1.15,2013-11-23 15:10:00,
2013-11-23 10:15:00,60.0,59.1,30.19,West,279,2.0,3.0,97,0.00,,,0.13,Wunderground v.1.15,2013-11-23 15:15:00,
2013-11-23 10:20:00,60.0,58.9,30.19,SSW,213,2.0,2.0,96,0.00,,,0.13,Wunderground v.1.15,2013-11-23 15:20:00,
2013-11-23 10:25:00,60.1,59.0,30.19,NW,321,2.0,6.0,96,0.00,,,0.13,Wunderground v.1.15,2013-11-23 15:25:00,
2013-11-23 10:30:00,60.0,58.6,30.19,WNW,301,2.0,2.0,95,0.00,,,0.13,Wunderground v.1.15,2013-11-23 15:30:00,
2013-11-23 10:40:00,60.1,58.7,30.18,West,273,2.0,2.0,95,0.00,,,0.13,Wunderground v.1.15,2013-11-23 15:40:00,
2013-11-23 10:45:00,60.2,58.8,30.18,WSW,257,2.0,3.0,95,0.00,,,0.13,Wunderground v.1.15,2013-11-23 15:45:00,
2013-11-23 10:55:00,60.3,58.9,30.19,NNW,340,2.0,3.0,95,0.00,,,0.13,Wunderground v.1.15,2013-11-23 15:55:00,
2013-11-23 11:00:00,60.3,58.6,30.19,West,267,2.0,4.0,94,0.00,,,0.13,Wunderground v.1.15,2013-11-23 16:00:00,
2013-11-23 11:10:00,60.2,58.8,30.19,NNW,336,2.0,2.0,95,0.00,,,0.13,Wunderground v.1.15,2013-11-23 16:10:00,
2013-11-23 11:15:00,60.2,58.5,30.18,NNW,329,2.0,6.0,94,0.00,,,0.13,Wunderground v.1.15,2013-11-23 16:15:00,
2013-11-23 11:20:00,60.1,58.4,30.18,NNW,336,3.0,4.0,94,0.00,,,0.13,Wunderground v.1.15,2013-11-23 16:20:00,
2013-11-23 11:25:00,60.1,58.4,30.18,WSW,241,3.0,4.0,94,0.00,,,0.13,Wunderground v.1.15,2013-11-23 16:25:00,
2013-11-23 11:30:00,60.2,58.5,30.18,WNW,290,2.0,2.0,94,0.00,,,0.13,Wunderground v.1.15,2013-11-23 16:30:00,
2013-11-23 11:40:00,60.7,59.0,30.17,West,269,2.0,2.0,94,0.00,,,0.13,Wunderground v.1.15,2013-11-23 16:40:00,
2013-11-23 11:45:00,60.8,58.8,30.17,WNW,300,2.0,2.0,93,0.00,,,0.13,Wunderground v.1.15,2013-11-23 16:45:00,
2013-11-23 11:55:00,61.9,59.2,30.16,West,275,2.0,5.0,91,0.00,,,0.13,Wunderground v.1.15,2013-11-23 16:55:00,
2013-11-23 12:00:00,62.1,58.8,30.16,NNW,330,4.0,6.0,89,0.00,,,0.13,Wunderground v.1.15,2013-11-23 17:00:00,
2013-11-23 12:05:00,62.3,58.7,30.16,SW,230,5.0,6.0,88,0.00,,,0.13,Wunderground v.1.15,2013-11-23 17:05:00,
2013-11-23 12:10:00,62.8,58.9,30.15,NNW,335,4.0,4.0,87,0.00,,,0.13,Wunderground v.1.15,2013-11-23 17:10:00,
2013-11-23 12:15:00,63.5,59.6,30.15,NNW,344,2.0,4.0,87,0.00,,,0.13,Wunderground v.1.15,2013-11-23 17:15:00,
2013-11-23 12:25:00,64.4,59.5,30.14,SW,215,3.0,4.0,84,0.00,,,0.13,Wunderground v.1.15,2013-11-23 17:25:00,
2013-11-23 12:30:00,64.4,59.5,30.14,NNW,341,3.0,4.0,84,0.00,,,0.13,Wunderground v.1.15,2013-11-23 17:30:00,
2013-11-23 12:35:00,64.3,59.4,30.14,SSW,211,3.0,5.0,84,0.00,,,0.13,Wunderground v.1.15,2013-11-23 17:35:00,
2013-11-23 12:45:00,64.5,59.6,30.14,SW,221,3.0,7.0,84,0.00,,,0.13,Wunderground v.1.15,2013-11-23 17:45:00,
2013-11-23 12:55:00,64.9,59.6,30.13,West,281,3.0,3.0,83,0.00,,,0.13,Wunderground v.1.15,2013-11-23 17:55:00,
2013-11-23 13:00:00,65.2,58.9,30.13,West,271,3.0,3.0,80,0.00,,,0.13,Wunderground v.1.15,2013-11-23 18:00:00,
2013-11-23 13:10:00,65.3,59.0,30.13,North,355,4.0,4.0,80,0.00,,,0.13,Wunderground v.1.15,2013-11-23 18:10:00,
2013-11-23 13:15:00,65.8,59.5,30.12,NW,309,4.0,4.0,80,0.00,,,0.13,Wunderground v.1.15,2013-11-23 18:15:00,
2013-11-23 13:20:00,66.1,59.4,30.12,West,267,4.0,4.0,79,0.00,,,0.13,Wunderground v.1.15,2013-11-23 18:20:00,
2013-11-23 13:30:00,66.1,59.0,30.11,West,279,4.0,4.0,78,0.00,,,0.13,Wunderground v.1.15,2013-11-23 18:30:00,
2013-11-23 13:40:00,66.6,58.1,30.11,North,349,5.0,5.0,74,0.00,,,0.13,Wunderground v.1.15,2013-11-23 18:40:00,
2013-11-23 13:45:00,66.7,58.5,30.11,NNW,332,4.0,5.0,75,0.00,,,0.13,Wunderground v.1.15,2013-11-23 18:45:00,
2013-11-23 13:50:00,67.0,58.8,30.10,North,350,2.0,2.0,75,0.00,,,0.13,Wunderground v.1.15,2013-11-23 18:50:00,
2013-11-23 14:00:00,67.7,59.1,30.10,NW,321,3.0,9.0,74,0.00,,,0.13,Wunderground v.1.15,2013-11-23 19:00:00,
2013-11-23 14:10:00,67.5,58.5,30.10,NNW,336,4.0,7.0,73,0.00,,,0.13,Wunderground v.1.15,2013-11-23 19:10:00,
2013-11-23 14:15:00,67.0,58.4,30.10,WSW,253,3.0,7.0,74,0.00,,,0.13,Wunderground v.1.15,2013-11-23 19:15:00,
2013-11-23 14:20:00,67.1,58.5,30.10,NNE,13,3.0,4.0,74,0.00,,,0.13,Wunderground v.1.15,2013-11-23 19:20:00,
2013-11-23 14:30:00,67.3,58.3,30.09,NW,312,2.0,2.0,73,0.00,,,0.13,Wunderground v.1.15,2013-11-23 19:30:00,
2013-11-23 14:40:00,67.9,58.5,30.09,North,349,2.0,4.0,72,0.00,,,0.13,Wunderground v.1.15,2013-11-23 19:40:00,
2013-11-23 14:45:00,67.4,58.4,30.09,NW,321,2.0,4.0,73,0.00,,,0.13,Wunderground v.1.15,2013-11-23 19:45:00,
2013-11-23 14:50:00,67.1,58.5,30.09,WNW,282,2.0,2.0,74,0.00,,,0.13,Wunderground v.1.15,2013-11-23 19:50:00,
2013-11-23 15:00:00,66.7,58.5,30.09,SW,221,2.0,2.0,75,0.00,,,0.13,Wunderground v.1.15,2013-11-23 20:00:00,
2013-11-23 15:10:00,66.7,58.5,30.09,SW,223,1.0,2.0,75,0.00,,,0.13,Wunderground v.1.15,2013-11-23 20:10:00,
2013-11-23 15:15:00,66.7,58.9,30.09,SW,229,1.0,2.0,76,0.00,,,0.13,Wunderground v.1.15,2013-11-23 20:15:00,
2013-11-23 15:20:00,66.6,58.8,30.09,NNW,329,2.0,2.0,76,0.00,,,0.13,Wunderground v.1.15,2013-11-23 20:20:00,
2013-11-23 15:30:00,66.5,59.1,30.09,WNW,286,1.0,1.0,77,0.00,,,0.13,Wunderground v.1.15,2013-11-23 20:30:00,
2013-11-23 15:35:00,66.7,58.9,30.09,WNW,286,0.0,1.0,76,0.00,,,0.13,Wunderground v.1.15,2013-11-23 20:35:00,
2013-11-23 15:40:00,66.8,59.0,30.09,WNW,285,1.0,1.0,76,0.00,,,0.13,Wunderground v.1.15,2013-11-23 20:40:00,
2013-11-23 15:45:00,66.8,58.6,30.09,SW,225,1.0,1.0,75,0.00,,,0.13,Wunderground v.1.15,2013-11-23 20:45:00,
2013-11-23 15:55:00,66.7,58.5,30.10,WNW,295,1.0,2.0,75,0.00,,,0.13,Wunderground v.1.15,2013-11-23 20:55:00,
2013-11-23 16:00:00,66.6,58.8,30.10,NNE,20,2.0,2.0,76,0.00,,,0.13,Wunderground v.1.15,2013-11-23 21:00:00,
2013-11-23 16:05:00,66.4,58.6,30.11,West,264,2.0,2.0,76,0.00,,,0.13,Wunderground v.1.15,2013-11-23 21:05:00,
2013-11-23 16:10:00,66.2,58.0,30.11,SW,225,2.0,2.0,75,0.00,,,0.13,Wunderground v.1.15,2013-11-23 21:10:00,
2013-11-23 16:20:00,65.6,56.3,30.11,NNW,345,3.0,3.0,72,0.00,,,0.13,Wunderground v.1.15,2013-11-23 21:20:00,
2013-11-23 16:25:00,65.4,56.5,30.11,West,271,2.0,3.0,73,0.00,,,0.13,Wunderground v.1.15,2013-11-23 21:25:00,
2013-11-23 16:30:00,65.1,56.6,30.11,NW,322,2.0,2.0,74,0.00,,,0.13,Wunderground v.1.15,2013-11-23 21:30:00,
2013-11-23 16:35:00,64.7,56.2,30.11,NNW,333,1.0,2.0,74,0.00,,,0.13,Wunderground v.1.15,2013-11-23 21:35:00,
2013-11-23 16:40:00,64.3,55.8,30.11,WNW,286,1.0,4.0,74,0.00,,,0.13,Wunderground v.1.15,2013-11-23 21:40:00,
2013-11-23 16:45:00,64.0,55.9,30.12,West,274,2.0,4.0,75,0.00,,,0.13,Wunderground v.1.15,2013-11-23 21:45:00,
2013-11-23 16:50:00,63.8,56.1,30.12,WSW,256,1.0,2.0,76,0.00,,,0.13,Wunderground v.1.15,2013-11-23 21:50:00,
2013-11-23 16:55:00,63.5,55.4,30.12,NW,308,2.0,3.0,75,0.00,,,0.13,Wunderground v.1.15,2013-11-23 21:55:00,
2013-11-23 17:05:00,63.0,54.9,30.12,NNW,329,2.0,4.0,75,0.00,,,0.13,Wunderground v.1.15,2013-11-23 22:05:00,
2013-11-23 17:15:00,62.6,54.6,30.12,NW,316,2.0,2.0,75,0.00,,,0.13,Wunderground v.1.15,2013-11-23 22:15:00,
2013-11-23 17:25:00,62.0,54.0,30.13,NNW,331,3.0,4.0,75,0.00,,,0.13,Wunderground v.1.15,2013-11-23 22:25:00,
2013-11-23 17:30:00,61.7,54.1,30.13,NNW,330,3.0,8.0,76,0.00,,,0.13,Wunderground v.1.15,2013-11-23 22:30:00,
2013-11-23 17:35:00,61.4,53.0,30.13,NNW,336,4.0,8.0,74,0.00,,,0.13,Wunderground v.1.15,2013-11-23 22:35:00,
2013-11-23 17:40:00,61.3,52.6,30.14,NNW,335,4.0,4.0,73,0.00,,,0.13,Wunderground v.1.15,2013-11-23 22:40:00,
2013-11-23 17:45:00,61.2,52.1,30.14,NW,315,4.0,4.0,72,0.00,,,0.13,Wunderground v.1.15,2013-11-23 22:45:00,
2013-11-23 17:50:00,60.9,51.8,30.14,NW,325,3.0,10.0,72,0.00,,,0.13,Wunderground v.1.15,2013-11-23 22:50:00,
2013-11-23 17:55:00,60.8,51.7,30.15,North,355,4.0,10.0,72,0.00,,,0.13,Wunderground v.1.15,2013-11-23 22:55:00,
2013-11-23 18:05:00,60.5,52.2,30.15,NW,311,2.0,3.0,74,0.00,,,0.13,Wunderground v.1.15,2013-11-23 23:05:00,
2013-11-23 18:15:00,60.0,52.1,30.15,NW,323,2.0,4.0,75,0.00,,,0.13,Wunderground v.1.15,2013-11-23 23:15:00,
2013-11-23 18:20:00,59.8,51.9,30.15,NW,325,3.0,3.0,75,0.00,,,0.13,Wunderground v.1.15,2013-11-23 23:20:00,
2013-11-23 18:25:00,59.5,51.6,30.15,WSW,238,2.0,3.0,75,0.00,,,0.13,Wunderground v.1.15,2013-11-23 23:25:00,
2013-11-23 18:30:00,59.3,51.7,30.15,NW,321,1.0,3.0,76,0.00,,,0.13,Wunderground v.1.15,2013-11-23 23:30:00,
2013-11-23 18:40:00,59.0,51.1,30.16,West,267,2.0,2.0,75,0.00,,,0.13,Wunderground v.1.15,2013-11-23 23:40:00,
2013-11-23 18:45:00,58.8,50.9,30.16,SW,234,2.0,2.0,75,0.00,,,0.13,Wunderground v.1.15,2013-11-23 23:45:00,
2013-11-23 18:50:00,58.6,51.1,30.16,WNW,294,1.0,2.0,76,0.00,,,0.13,Wunderground v.1.15,2013-11-23 23:50:00,
2013-11-23 18:55:00,58.3,50.8,30.16,NW,304,1.0,2.0,76,0.00,,,0.13,Wunderground v.1.15,2013-11-23 23:55:00,
2013-11-23 19:05:00,57.9,50.0,30.16,WSW,250,1.0,3.0,75,0.00,,,0.13,Wunderground v.1.15,2013-11-24 00:05:00,
2013-11-23 19:10:00,57.7,49.8,30.17,NNW,335,2.0,2.0,75,0.00,,,0.13,Wunderground v.1.15,2013-11-24 00:10:00,
2013-11-23 19:15:00,57.6,49.7,30.16,WNW,292,1.0,2.0,75,0.00,,,0.13,Wunderground v.1.15,2013-11-24 00:15:00,
2013-11-23 19:25:00,57.4,49.5,30.17,WNW,285,2.0,4.0,75,0.00,,,0.13,Wunderground v.1.15,2013-11-24 00:25:00,
2013-11-23 19:30:00,57.3,49.1,30.17,NW,312,2.0,2.0,74,0.00,,,0.13,Wunderground v.1.15,2013-11-24 00:30:00,
2013-11-23 19:35:00,57.1,48.9,30.17,North,355,2.0,4.0,74,0.00,,,0.13,Wunderground v.1.15,2013-11-24 00:35:00,
2013-11-23 19:40:00,57.1,48.9,30.17,NW,321,2.0,2.0,74,0.00,,,0.13,Wunderground v.1.15,2013-11-24 00:40:00,
2013-11-23 19:45:00,57.0,48.8,30.17,WNW,303,2.0,2.0,74,0.00,,,0.13,Wunderground v.1.15,2013-11-24 00:45:00,
2013-11-23 19:55:00,56.9,48.3,30.18,NW,309,2.0,3.0,73,0.00,,,0.13,Wunderground v.1.15,2013-11-24 00:55:00,
2013-11-23 20:00:00,56.8,48.2,30.18,NW,307,2.0,2.0,73,0.00,,,0.13,Wunderground v.1.15,2013-11-24 01:00:00,
2013-11-23 20:05:00,56.8,48.2,30.18,NNW,348,2.0,2.0,73,0.00,,,0.13,Wunderground v.1.15,2013-11-24 01:05:00,
2013-11-23 20:10:00,56.7,47.8,30.18,NW,319,2.0,3.0,72,0.00,,,0.13,Wunderground v.1.15,2013-11-24 01:10:00,
2013-11-23 20:15:00,56.6,48.0,30.19,WNW,292,2.0,3.0,73,0.00,,,0.13,Wunderground v.1.15,2013-11-24 01:15:00,
2013-11-23 20:25:00,56.3,46.6,30.19,NW,325,3.0,4.0,70,0.00,,,0.13,Wunderground v.1.15,2013-11-24 01:25:00,
2013-11-23 20:30:00,56.3,47.0,30.19,NW,326,2.0,3.0,71,0.00,,,0.13,Wunderground v.1.15,2013-11-24 01:30:00,
2013-11-23 20:35:00,56.2,45.4,30.19,NW,311,2.0,5.0,67,0.00,,,0.13,Wunderground v.1.15,2013-11-24 01:35:00,
2013-11-23 20:40:00,56.2,44.2,30.19,NNW,327,4.0,7.0,64,0.00,,,0.13,Wunderground v.1.15,2013-11-24 01:40:00,
2013-11-23 20:50:00,55.9,41.8,30.19,NW,316,4.0,4.0,59,0.00,,,0.13,Wunderground v.1.15,2013-11-24 01:50:00,
2013-11-23 20:55:00,55.7,41.1,30.19,WNW,299,4.0,6.0,58,0.00,,,0.13,Wunderground v.1.15,2013-11-24 01:55:00,
2013-11-23 21:00:00,55.4,40.9,30.19,NW,309,4.0,4.0,58,0.00,,,0.13,Wunderground v.1.15,2013-11-24 02:00:00,
2013-11-23 21:10:00,54.5,40.5,30.19,NW,325,3.0,5.0,59,0.00,,,0.13,Wunderground v.1.15,2013-11-24 02:10:00,
2013-11-23 21:15:00,54.1,39.6,30.19,NNW,329,3.0,5.0,58,0.00,,,0.13,Wunderground v.1.15,2013-11-24 02:15:00,
2013-11-23 21:20:00,53.7,39.7,30.20,NW,320,3.0,3.0,59,0.00,,,0.13,Wunderground v.1.15,2013-11-24 02:20:00,
2013-11-23 21:25:00,53.4,39.0,30.20,North,349,3.0,3.0,58,0.00,,,0.13,Wunderground v.1.15,2013-11-24 02:25:00,
2013-11-23 21:30:00,53.1,38.7,30.20,NNW,346,3.0,3.0,58,0.00,,,0.13,Wunderground v.1.15,2013-11-24 02:30:00,
2013-11-23 21:40:00,52.6,37.8,30.20,NW,309,4.0,4.0,57,0.00,,,0.13,Wunderground v.1.15,2013-11-24 02:40:00,
2013-11-23 21:45:00,52.4,37.6,30.21,NNW,331,4.0,4.0,57,0.00,,,0.13,Wunderground v.1.15,2013-11-24 02:45:00,
2013-11-23 21:55:00,51.7,37.4,30.21,NW,308,3.0,3.0,58,0.00,,,0.13,Wunderground v.1.15,2013-11-24 02:55:00,
2013-11-23 22:00:00,51.4,37.1,30.22,NNW,327,3.0,4.0,58,0.00,,,0.13,Wunderground v.1.15,2013-11-24 03:00:00,
2013-11-23 22:05:00,51.1,36.4,30.22,NNW,333,3.0,4.0,57,0.00,,,0.13,Wunderground v.1.15,2013-11-24 03:05:00,
2013-11-23 22:10:00,50.9,36.2,30.21,NNW,338,3.0,3.0,57,0.00,,,0.13,Wunderground v.1.15,2013-11-24 03:10:00,
2013-11-23 22:15:00,50.5,36.3,30.22,NW,317,2.0,3.0,58,0.00,,,0.13,Wunderground v.1.15,2013-11-24 03:15:00,
2013-11-23 22:25:00,49.6,37.1,30.22,NW,317,1.0,2.0,62,0.00,,,0.13,Wunderground v.1.15,2013-11-24 03:25:00,
2013-11-23 22:30:00,49.1,37.0,30.23,NW,317,0.0,0.0,63,0.00,,,0.13,Wunderground v.1.15,2013-11-24 03:30:00,
2013-11-23 22:35:00,48.5,36.5,30.23,NW,318,1.0,2.0,63,0.00,,,0.13,Wunderground v.1.15,2013-11-24 03:35:00,
2013-11-23 22:45:00,47.8,35.8,30.23,NW,315,2.0,2.0,63,0.00,,,0.13,Wunderground v.1.15,2013-11-24 03:45:00,
2013-11-23 22:55:00,47.6,35.2,30.23,NW,313,2.0,3.0,62,0.00,,,0.13,Wunderground v.1.15,2013-11-24 03:55:00,
2013-11-23 23:00:00,47.4,35.0,30.23,NW,313,2.0,2.0,62,0.00,,,0.13,Wunderground v.1.15,2013-11-24 04:00:00,
2013-11-23 23:05:00,47.1,33.9,30.23,NW,315,2.0,2.0,60,0.00,,,0.13,Wunderground v.1.15,2013-11-24 04:05:00,
2013-11-23 23:10:00,47.0,34.2,30.24,NNW,340,2.0,2.0,61,0.00,,,0.13,Wunderground v.1.15,2013-11-24 04:10:00,
2013-11-23 23:15:00,46.8,33.2,30.24,NNW,338,2.0,3.0,59,0.00,,,0.13,Wunderground v.1.15,2013-11-24 04:15:00,
2013-11-23 23:25:00,46.7,32.7,30.24,NNW,329,3.0,3.0,58,0.00,,,0.13,Wunderground v.1.15,2013-11-24 04:25:00,
2013-11-23 23:35:00,46.1,32.6,30.24,NW,321,2.0,3.0,59,0.00,,,0.13,Wunderground v.1.15,2013-11-24 04:35:00,
2013-11-23 23:40:00,45.8,32.7,30.24,NNW,338,2.0,2.0,60,0.00,,,0.13,Wunderground v.1.15,2013-11-24 04:40:00,
2013-11-23 23:45:00,45.4,32.7,30.24,NNW,340,2.0,2.0,61,0.00,,,0.13,Wunderground v.1.15,2013-11-24 04:45:00,
2013-11-23 23:55:00,45.0,32.8,30.24,NNW,333,2.0,2.0,62,0.00,,,0.13,Wunderground v.1.15,2013-11-24 04:55:00,